Glacier Park International Airport Kalispell US
ICAO: KGPI
IATA: FCA
Category: Medium
Scheduled Services: Yes

Elevation: 2977 ft
TransAlt. 18000 ft.

Airport Communications:
ATIS:132.625
SALT LAKE CITY CNTR:133.4
CTAF:124.55
GND:121.6
GREAT FALLS RDO:122.5
TWR:124.55
UNICOM:122.95

KGPI Zoom In..

Runways:

(A) RW 02 length 9007 ft width 150 ft
ILS 111.50 / hdg 20

(B) RW 12 length 3504 ft width 75 ft
---- / hdg 121

(C) RW 20 length 9007 ft width 150 ft
---- / hdg 200

(D) RW 30 length 3504 ft width 75 ft
---- / hdg 301

Location; KGPI
Day. 04 / Time. 16.55 Zulu
* Altimeter: 30.56
* Temperature: -02° c. -28.4°f.
* Wind from: 050° Speed 03 kn.
Dewpoint: -04° c.
Visibility: 2 Statute Miles.
Clouds: Overcast 500 ft.
Conditions: Mist.

KGPI 041655Z 05003KT 2SM BR OVC005 M02/M04 A3056 RMK AO2 SLP385 T10221039

Going to: --> -->


Wind From 050°
Speed 03 kn.

 
 
jpsmedia worldairports.se 2020   terms of use